sensor_id;sensor_type;location;lat;lon;timestamp;pressure;altitude;pressure_sealevel;temperature;humidity
69848;BME280;57143;55.940;37.496;2023-03-13T00:01:50;96259.03;;;-4.34;100.00
69848;BME280;57143;55.940;37.496;2023-03-13T00:04:17;96274.28;;;-4.30;100.00
69848;BME280;57143;55.940;37.496;2023-03-13T00:06:44;96270.22;;;-4.32;100.00
69848;BME280;57143;55.940;37.496;2023-03-13T00:09:14;96282.03;;;-4.41;100.00
69848;BME280;57143;55.940;37.496;2023-03-13T00:11:41;96239.22;;;-4.63;100.00
69848;BME280;57143;55.940;37.496;2023-03-13T00:14:09;96282.03;;;-4.41;100.00
69848;BME280;57143;55.940;37.496;2023-03-13T00:16:37;96287.97;;;-4.46;100.00
69848;BME280;57143;55.940;37.496;2023-03-13T00:19:06;96295.25;;;-4.41;100.00
69848;BME280;57143;55.940;37.496;2023-03-13T00:21:34;96292.41;;;-4.46;100.00
69848;BME280;57143;55.940;37.496;2023-03-13T00:24:02;96284.91;;;-4.49;100.00
69848;BME280;57143;55.940;37.496;2023-03-13T00:26:29;96306.47;;;-4.52;100.00
69848;BME280;57143;55.940;37.496;2023-03-13T00:28:57;96309.28;;;-4.41;100.00
69848;BME280;57143;55.940;37.496;2023-03-13T00:31:25;96322.31;;;-4.46;100.00
69848;BME280;57143;55.940;37.496;2023-03-13T00:33:54;96288.44;;;-4.75;100.00
69848;BME280;57143;55.940;37.496;2023-03-13T00:36:26;96327.56;;;-4.39;100.00
69848;BME280;57143;55.940;37.496;2023-03-13T00:38:54;96342.44;;;-4.38;100.00
69848;BME280;57143;55.940;37.496;2023-03-13T00:41:23;96337.56;;;-4.54;100.00
69848;BME280;57143;55.940;37.496;2023-03-13T00:43:51;96342.03;;;-4.42;100.00
69848;BME280;57143;55.940;37.496;2023-03-13T00:46:19;96304.47;;;-4.70;100.00
69848;BME280;57143;55.940;37.496;2023-03-13T00:48:47;96341.63;;;-4.45;100.00
69848;BME280;57143;55.940;37.496;2023-03-13T00:51:16;96361.31;;;-4.35;100.00
69848;BME280;57143;55.940;37.496;2023-03-13T00:53:45;96359.88;;;-4.31;100.00
69848;BME280;57143;55.940;37.496;2023-03-13T00:56:13;96372.91;;;-4.36;100.00
69848;BME280;57143;55.940;37.496;2023-03-13T00:58:42;96378.41;;;-4.37;100.00
69848;BME280;57143;55.940;37.496;2023-03-13T01:01:11;96362.16;;;-4.60;100.00
69848;BME280;57143;55.940;37.496;2023-03-13T01:03:39;96361.78;;;-4.77;100.00
69848;BME280;57143;55.940;37.496;2023-03-13T01:06:09;96344.31;;;-4.91;100.00
69848;BME280;57143;55.940;37.496;2023-03-13T01:08:37;96414.38;;;-4.49;100.00
69848;BME280;57143;55.940;37.496;2023-03-13T01:11:07;96435.94;;;-4.52;100.00
69848;BME280;57143;55.940;37.496;2023-03-13T01:13:34;96385.75;;;-4.85;100.00
69848;BME280;57143;55.940;37.496;2023-03-13T01:16:03;96443.47;;;-4.62;100.00
69848;BME280;57143;55.940;37.496;2023-03-13T01:18:30;96442.03;;;-4.58;100.00
69848;BME280;57143;55.940;37.496;2023-03-13T01:20:57;96449.34;;;-4.60;100.00
69848;BME280;57143;55.940;37.496;2023-03-13T01:23:25;96461.34;;;-4.64;100.00
69848;BME280;57143;55.940;37.496;2023-03-13T01:25:53;96464.38;;;-4.68;100.00
69848;BME280;57143;55.940;37.496;2023-03-13T01:28:22;96463.94;;;-4.97;100.00
69848;BME280;57143;55.940;37.496;2023-03-13T01:30:50;96470.03;;;-4.90;100.00
69848;BME280;57143;55.940;37.496;2023-03-13T01:33:17;96502.94;;;-4.80;100.00
69848;BME280;57143;55.940;37.496;2023-03-13T01:35:44;96501.94;;;-4.85;100.00
69848;BME280;57143;55.940;37.496;2023-03-13T01:38:12;96520.22;;;-4.84;100.00
69848;BME280;57143;55.940;37.496;2023-03-13T01:40:40;96506.19;;;-4.97;100.00
69848;BME280;57143;55.940;37.496;2023-03-13T01:43:18;96543.94;;;-4.97;100.00
69848;BME280;57143;55.940;37.496;2023-03-13T01:45:58;96537.88;;;-4.97;100.00
69848;BME280;57143;55.940;37.496;2023-03-13T01:48:30;96525.22;;;-5.08;100.00
69848;BME280;57143;55.940;37.496;2023-03-13T01:51:03;96545.78;;;-4.97;100.00
69848;BME280;57143;55.940;37.496;2023-03-13T01:53:34;96542.88;;;-5.15;100.00
69848;BME280;57143;55.940;37.496;2023-03-13T01:56:05;96562.41;;;-5.03;100.00
69848;BME280;57143;55.940;37.496;2023-03-13T01:58:35;96522.50;;;-5.28;100.00
69848;BME280;57143;55.940;37.496;2023-03-13T02:01:04;96570.09;;;-5.15;100.00
69848;BME280;57143;55.940;37.496;2023-03-13T02:03:33;96563.97;;;-5.15;100.00
69848;BME280;57143;55.940;37.496;2023-03-13T02:06:01;96573.34;;;-5.13;100.00
69848;BME280;57143;55.940;37.496;2023-03-13T02:08:33;96535.56;;;-5.54;100.00
69848;BME280;57143;55.940;37.496;2023-03-13T02:11:09;96590.97;;;-5.20;100.00
69848;BME280;57143;55.940;37.496;2023-03-13T02:13:38;96589.31;;;-5.27;100.00
69848;BME280;57143;55.940;37.496;2023-03-13T02:16:08;96609.34;;;-5.33;100.00
69848;BME280;57143;55.940;37.496;2023-03-13T02:18:36;96603.84;;;-5.38;100.00
69848;BME280;57143;55.940;37.496;2023-03-13T02:21:09;96607.34;;;-5.31;100.00
69848;BME280;57143;55.940;37.496;2023-03-13T02:23:41;96605.72;;;-5.32;100.00
69848;BME280;57143;55.940;37.496;2023-03-13T02:26:12;96620.34;;;-5.29;100.00
69848;BME280;57143;55.940;37.496;2023-03-13T02:28:39;96610.00;;;-5.24;100.00
69848;BME280;57143;55.940;37.496;2023-03-13T02:31:07;96596.75;;;-5.37;100.00
69848;BME280;57143;55.940;37.496;2023-03-13T02:33:37;96529.97;;;-5.85;100.00
69848;BME280;57143;55.940;37.496;2023-03-13T02:36:06;96612.97;;;-5.40;100.00
69848;BME280;57143;55.940;37.496;2023-03-13T02:38:47;96620.16;;;-5.55;100.00
69848;BME280;57143;55.940;37.496;2023-03-13T02:41:20;96643.19;;;-5.43;100.00
69848;BME280;57143;55.940;37.496;2023-03-13T02:43:48;96649.94;;;-5.40;100.00
69848;BME280;57143;55.940;37.496;2023-03-13T02:46:17;96652.47;;;-5.53;100.00
69848;BME280;57143;55.940;37.496;2023-03-13T02:48:46;96656.50;;;-5.57;100.00
69848;BME280;57143;55.940;37.496;2023-03-13T02:51:17;96627.34;;;-5.77;100.00
69848;BME280;57143;55.940;37.496;2023-03-13T02:53:48;96662.19;;;-5.54;100.00
69848;BME280;57143;55.940;37.496;2023-03-13T02:56:17;96655.44;;;-5.63;100.00
69848;BME280;57143;55.940;37.496;2023-03-13T02:58:47;96665.94;;;-5.69;100.00
69848;BME280;57143;55.940;37.496;2023-03-13T03:01:14;96666.97;;;-5.64;100.00
69848;BME280;57143;55.940;37.496;2023-03-13T03:03:41;96631.97;;;-5.85;100.00
69848;BME280;57143;55.940;37.496;2023-03-13T03:06:08;96670.78;;;-5.73;100.00
69848;BME280;57143;55.940;37.496;2023-03-13T03:08:35;96672.78;;;-5.75;100.00
69848;BME280;57143;55.940;37.496;2023-03-13T03:11:06;96673.22;;;-5.71;100.00
69848;BME280;57143;55.940;37.496;2023-03-13T03:13:33;96694.31;;;-5.71;100.00
69848;BME280;57143;55.940;37.496;2023-03-13T03:16:06;96688.41;;;-5.73;100.00
69848;BME280;57143;55.940;37.496;2023-03-13T03:18:34;96694.44;;;-5.79;100.00
69848;BME280;57143;55.940;37.496;2023-03-13T03:21:01;96697.06;;;-5.79;100.00
69848;BME280;57143;55.940;37.496;2023-03-13T03:23:31;96683.47;;;-5.83;100.00
69848;BME280;57143;55.940;37.496;2023-03-13T03:25:58;96700.91;;;-5.82;100.00
69848;BME280;57143;55.940;37.496;2023-03-13T03:28:25;96697.06;;;-5.86;100.00
69848;BME280;57143;55.940;37.496;2023-03-13T03:30:53;96695.44;;;-5.87;100.00
69848;BME280;57143;55.940;37.496;2023-03-13T03:33:22;96698.50;;;-5.83;100.00
69848;BME280;57143;55.940;37.496;2023-03-13T03:35:50;96713.69;;;-5.85;100.00
69848;BME280;57143;55.940;37.496;2023-03-13T03:38:17;96723.16;;;-5.91;100.00
69848;BME280;57143;55.940;37.496;2023-03-13T03:40:44;96712.19;;;-5.95;100.00
69848;BME280;57143;55.940;37.496;2023-03-13T03:43:11;96722.16;;;-5.90;100.00
69848;BME280;57143;55.940;37.496;2023-03-13T03:45:38;96733.72;;;-5.91;100.00
69848;BME280;57143;55.940;37.496;2023-03-13T03:48:05;96725.56;;;-5.96;100.00
69848;BME280;57143;55.940;37.496;2023-03-13T03:50:34;96732.63;;;-5.97;100.00
69848;BME280;57143;55.940;37.496;2023-03-13T03:53:01;96739.75;;;-5.97;100.00
69848;BME280;57143;55.940;37.496;2023-03-13T03:55:28;96743.38;;;-5.98;100.00
69848;BME280;57143;55.940;37.496;2023-03-13T03:57:56;96733.22;;;-6.01;100.00
69848;BME280;57143;55.940;37.496;2023-03-13T04:00:23;96740.75;;;-5.98;100.00
69848;BME280;57143;55.940;37.496;2023-03-13T04:02:51;96749.22;;;-6.03;100.00
69848;BME280;57143;55.940;37.496;2023-03-13T04:05:18;96746.19;;;-6.00;100.00
69848;BME280;57143;55.940;37.496;2023-03-13T04:07:47;96747.66;;;-5.97;100.00
69848;BME280;57143;55.940;37.496;2023-03-13T04:10:14;96757.00;;;-5.95;100.00
69848;BME280;57143;55.940;37.496;2023-03-13T04:12:41;96760.47;;;-5.94;100.00
69848;BME280;57143;55.940;37.496;2023-03-13T04:15:09;96753.25;;;-5.85;100.00
69848;BME280;57143;55.940;37.496;2023-03-13T04:17:37;96760.34;;;-5.86;100.00
69848;BME280;57143;55.940;37.496;2023-03-13T04:20:05;96764.97;;;-5.88;100.00
69848;BME280;57143;55.940;37.496;2023-03-13T04:22:33;96772.69;;;-5.86;100.00
69848;BME280;57143;55.940;37.496;2023-03-13T04:25:01;96760.13;;;-5.84;100.00
69848;BME280;57143;55.940;37.496;2023-03-13T04:27:29;96751.53;;;-5.72;100.00
69848;BME280;57143;55.940;37.496;2023-03-13T04:29:56;96738.56;;;-4.91;100.00
69848;BME280;57143;55.940;37.496;2023-03-13T04:32:23;96680.41;;;-3.90;100.00
69848;BME280;57143;55.940;37.496;2023-03-13T04:34:50;96645.81;;;-3.29;100.00
69848;BME280;57143;55.940;37.496;2023-03-13T04:37:18;96618.09;;;-2.57;100.00
69848;BME280;57143;55.940;37.496;2023-03-13T04:39:45;96633.75;;;-2.42;100.00
69848;BME280;57143;55.940;37.496;2023-03-13T04:42:14;96617.84;;;-1.80;100.00
69848;BME280;57143;55.940;37.496;2023-03-13T04:44:41;96653.13;;;-1.73;100.00
69848;BME280;57143;55.940;37.496;2023-03-13T04:47:08;96683.00;;;-1.84;100.00
69848;BME280;57143;55.940;37.496;2023-03-13T04:49:35;96717.41;;;-1.40;100.00
69848;BME280;57143;55.940;37.496;2023-03-13T04:52:03;96729.66;;;-0.65;100.00
69848;BME280;57143;55.940;37.496;2023-03-13T04:54:30;96768.38;;;-0.51;100.00
69848;BME280;57143;55.940;37.496;2023-03-13T04:56:57;96828.94;;;-0.71;100.00
69848;BME280;57143;55.940;37.496;2023-03-13T04:59:26;96858.53;;;-0.18;100.00
69848;BME280;57143;55.940;37.496;2023-03-13T05:01:53;96899.06;;;0.02;100.00
69848;BME280;57143;55.940;37.496;2023-03-13T05:04:20;96968.34;;;-0.05;100.00
69848;BME280;57143;55.940;37.496;2023-03-13T05:06:47;96987.91;;;0.50;100.00
69848;BME280;57143;55.940;37.496;2023-03-13T05:09:14;97075.19;;;0.30;100.00
69848;BME280;57143;55.940;37.496;2023-03-13T05:11:42;97123.03;;;0.68;100.00
69848;BME280;57143;55.940;37.496;2023-03-13T05:14:09;97196.66;;;0.38;100.00
69848;BME280;57143;55.940;37.496;2023-03-13T05:16:37;97224.19;;;0.87;100.00
69848;BME280;57143;55.940;37.496;2023-03-13T05:19:04;97273.69;;;0.77;100.00
69848;BME280;57143;55.940;37.496;2023-03-13T05:21:31;97285.38;;;1.32;100.00
69848;BME280;57143;55.940;37.496;2023-03-13T05:23:59;97363.22;;;1.22;100.00
69848;BME280;57143;55.940;37.496;2023-03-13T05:26:26;97418.47;;;1.46;100.00
69848;BME280;57143;55.940;37.496;2023-03-13T05:28:53;97487.31;;;1.38;100.00
69848;BME280;57143;55.940;37.496;2023-03-13T05:31:20;97528.75;;;1.47;100.00
69848;BME280;57143;55.940;37.496;2023-03-13T05:33:49;97552.41;;;1.30;100.00
69848;BME280;57143;55.940;37.496;2023-03-13T05:36:16;97547.69;;;1.32;100.00
69848;BME280;57143;55.940;37.496;2023-03-13T05:38:43;97640.06;;;1.20;100.00
69848;BME280;57143;55.940;37.496;2023-03-13T05:41:11;97718.91;;;1.03;100.00
69848;BME280;57143;55.940;37.496;2023-03-13T05:43:38;97750.50;;;1.26;100.00
69848;BME280;57143;55.940;37.496;2023-03-13T05:46:05;97827.22;;;1.04;100.00
69848;BME280;57143;55.940;37.496;2023-03-13T05:48:32;97855.56;;;1.25;100.00
69848;BME280;57143;55.940;37.496;2023-03-13T05:51:00;97929.31;;;0.85;100.00
69848;BME280;57143;55.940;37.496;2023-03-13T05:53:28;97956.53;;;1.14;100.00
69848;BME280;57143;55.940;37.496;2023-03-13T05:55:55;97995.94;;;1.19;100.00
69848;BME280;57143;55.940;37.496;2023-03-13T05:58:22;98027.91;;;1.12;100.00
69848;BME280;57143;55.940;37.496;2023-03-13T06:00:49;98091.88;;;0.99;100.00
69848;BME280;57143;55.940;37.496;2023-03-13T06:03:16;98103.31;;;1.75;100.00
69848;BME280;57143;55.940;37.496;2023-03-13T06:05:43;98137.88;;;1.89;100.00
69848;BME280;57143;55.940;37.496;2023-03-13T06:08:12;98209.00;;;1.56;100.00
69848;BME280;57143;55.940;37.496;2023-03-13T06:10:39;98227.25;;;1.87;100.00
69848;BME280;57143;55.940;37.496;2023-03-13T06:13:06;98253.75;;;1.88;100.00
69848;BME280;57143;55.940;37.496;2023-03-13T06:15:33;98294.28;;;1.64;100.00
69848;BME280;57143;55.940;37.496;2023-03-13T06:18:00;98287.97;;;2.12;100.00
69848;BME280;57143;55.940;37.496;2023-03-13T06:20:28;98320.66;;;2.55;100.00
69848;BME280;57143;55.940;37.496;2023-03-13T06:22:55;98355.69;;;2.67;100.00
69848;BME280;57143;55.940;37.496;2023-03-13T06:25:23;98397.88;;;2.71;100.00
69848;BME280;57143;55.940;37.496;2023-03-13T06:27:51;98477.28;;;1.60;100.00
69848;BME280;57143;55.940;37.496;2023-03-13T06:30:18;98496.69;;;0.97;100.00
69848;BME280;57143;55.940;37.496;2023-03-13T06:32:45;98469.50;;;0.58;100.00
69848;BME280;57143;55.940;37.496;2023-03-13T06:35:15;98444.38;;;0.82;100.00
69848;BME280;57143;55.940;37.496;2023-03-13T06:37:42;98427.03;;;1.07;100.00
69848;BME280;57143;55.940;37.496;2023-03-13T06:40:10;98402.34;;;1.89;100.00
69848;BME280;57143;55.940;37.496;2023-03-13T06:42:39;98428.94;;;1.76;100.00
69848;BME280;57143;55.940;37.496;2023-03-13T06:45:08;98445.41;;;2.07;100.00
69848;BME280;57143;55.940;37.496;2023-03-13T06:47:35;98486.56;;;2.13;100.00
69848;BME280;57143;55.940;37.496;2023-03-13T06:50:03;98527.94;;;2.17;100.00
69848;BME280;57143;55.940;37.496;2023-03-13T06:52:30;98529.59;;;3.14;100.00
69848;BME280;57143;55.940;37.496;2023-03-13T06:54:57;98562.69;;;2.66;100.00
69848;BME280;57143;55.940;37.496;2023-03-13T06:57:25;98589.16;;;2.61;100.00
69848;BME280;57143;55.940;37.496;2023-03-13T06:59:54;98609.66;;;2.26;100.00
69848;BME280;57143;55.940;37.496;2023-03-13T07:02:21;98607.84;;;2.33;100.00
69848;BME280;57143;55.940;37.496;2023-03-13T07:04:49;98622.53;;;2.44;100.00
69848;BME280;57143;55.940;37.496;2023-03-13T07:07:16;98619.72;;;1.67;100.00
69848;BME280;57143;55.940;37.496;2023-03-13T07:09:43;98633.06;;;2.24;100.00
69848;BME280;57143;55.940;37.496;2023-03-13T07:12:10;98609.34;;;2.91;100.00
69848;BME280;57143;55.940;37.496;2023-03-13T07:14:37;98663.25;;;1.68;100.00
69848;BME280;57143;55.940;37.496;2023-03-13T07:17:06;98660.34;;;1.48;100.00
69848;BME280;57143;55.940;37.496;2023-03-13T07:19:33;98653.63;;;1.38;100.00
69848;BME280;57143;55.940;37.496;2023-03-13T07:22:00;98646.16;;;1.33;100.00
69848;BME280;57143;55.940;37.496;2023-03-13T07:24:27;98636.66;;;1.60;100.00
69848;BME280;57143;55.940;37.496;2023-03-13T07:26:55;98624.41;;;1.65;100.00
69848;BME280;57143;55.940;37.496;2023-03-13T07:29:22;98625.00;;;1.46;100.00
69848;BME280;57143;55.940;37.496;2023-03-13T07:31:49;98624.16;;;1.46;100.00
69848;BME280;57143;55.940;37.496;2023-03-13T07:34:18;98609.44;;;1.85;100.00
69848;BME280;57143;55.940;37.496;2023-03-13T07:36:45;98635.66;;;1.32;100.00
69848;BME280;57143;55.940;37.496;2023-03-13T07:39:12;98641.28;;;1.07;100.00
69848;BME280;57143;55.940;37.496;2023-03-13T07:41:39;98622.47;;;0.57;100.00
69848;BME280;57143;55.940;37.496;2023-03-13T07:44:06;98628.41;;;0.82;100.00
69848;BME280;57143;55.940;37.496;2023-03-13T07:46:34;98635.56;;;0.67;100.00
69848;BME280;57143;55.940;37.496;2023-03-13T07:49:01;98637.50;;;0.50;100.00
69848;BME280;57143;55.940;37.496;2023-03-13T07:51:29;98627.13;;;0.41;100.00
69848;BME280;57143;55.940;37.496;2023-03-13T07:53:56;98618.81;;;0.58;100.00
69848;BME280;57143;55.940;37.496;2023-03-13T07:56:23;98592.34;;;0.86;100.00
69848;BME280;57143;55.940;37.496;2023-03-13T07:58:51;98563.16;;;1.28;100.00
69848;BME280;57143;55.940;37.496;2023-03-13T08:01:19;98570.50;;;1.26;100.00
69848;BME280;57143;55.940;37.496;2023-03-13T08:03:47;98572.56;;;1.60;100.00
69848;BME280;57143;55.940;37.496;2023-03-13T08:06:17;98584.88;;;1.75;100.00
69848;BME280;57143;55.940;37.496;2023-03-13T08:08:46;98587.75;;;1.95;100.00
69848;BME280;57143;55.940;37.496;2023-03-13T08:11:15;98611.94;;;2.08;100.00
69848;BME280;57143;55.940;37.496;2023-03-13T08:13:43;98622.75;;;2.42;100.00
69848;BME280;57143;55.940;37.496;2023-03-13T08:16:12;98646.50;;;2.52;100.00
69848;BME280;57143;55.940;37.496;2023-03-13T08:18:41;98630.00;;;2.97;100.00
69848;BME280;57143;55.940;37.496;2023-03-13T08:21:10;98658.63;;;3.03;100.00
69848;BME280;57143;55.940;37.496;2023-03-13T08:23:38;98721.81;;;2.34;100.00
69848;BME280;57143;55.940;37.496;2023-03-13T08:26:08;98697.31;;;2.16;100.00
69848;BME280;57143;55.940;37.496;2023-03-13T08:28:37;98727.78;;;2.36;100.00
69848;BME280;57143;55.940;37.496;2023-03-13T08:31:08;98692.50;;;2.68;100.00
69848;BME280;57143;55.940;37.496;2023-03-13T08:33:36;98737.47;;;2.58;100.00
69848;BME280;57143;55.940;37.496;2023-03-13T08:36:14;98735.91;;;2.64;100.00
69848;BME280;57143;55.940;37.496;2023-03-13T08:38:43;98736.78;;;2.50;100.00
69848;BME280;57143;55.940;37.496;2023-03-13T08:41:12;98754.16;;;1.60;100.00
69848;BME280;57143;55.940;37.496;2023-03-13T08:43:40;98730.66;;;1.70;100.00
69848;BME280;57143;55.940;37.496;2023-03-13T08:46:07;98726.47;;;2.11;100.00
69848;BME280;57143;55.940;37.496;2023-03-13T08:48:34;98709.03;;;2.15;100.00
69848;BME280;57143;55.940;37.496;2023-03-13T08:51:03;98676.94;;;2.29;100.00
69848;BME280;57143;55.940;37.496;2023-03-13T08:53:32;98700.28;;;1.42;100.00
69848;BME280;57143;55.940;37.496;2023-03-13T08:55:59;98682.44;;;1.42;100.00
69848;BME280;57143;55.940;37.496;2023-03-13T08:58:28;98664.22;;;1.31;100.00
69848;BME280;57143;55.940;37.496;2023-03-13T09:01:00;98652.81;;;0.56;100.00
69848;BME280;57143;55.940;37.496;2023-03-13T09:03:28;98612.94;;;0.26;100.00
69848;BME280;57143;55.940;37.496;2023-03-13T09:05:55;98568.22;;;0.13;100.00
69848;BME280;57143;55.940;37.496;2023-03-13T09:08:23;98464.69;;;-0.05;100.00
69848;BME280;57143;55.940;37.496;2023-03-13T09:10:54;98385.44;;;0.27;100.00
69848;BME280;57143;55.940;37.496;2023-03-13T09:13:22;98359.38;;;0.72;100.00
69848;BME280;57143;55.940;37.496;2023-03-13T09:15:54;98333.19;;;0.61;100.00
69848;BME280;57143;55.940;37.496;2023-03-13T09:18:22;98297.22;;;0.93;100.00
69848;BME280;57143;55.940;37.496;2023-03-13T09:20:49;98286.97;;;0.19;100.00
69848;BME280;57143;55.940;37.496;2023-03-13T09:23:16;98272.56;;;0.70;100.00
69848;BME280;57143;55.940;37.496;2023-03-13T09:25:44;98236.31;;;0.96;100.00
69848;BME280;57143;55.940;37.496;2023-03-13T09:28:11;98241.06;;;0.59;100.00
69848;BME280;57143;55.940;37.496;2023-03-13T09:30:38;98255.47;;;0.08;100.00
69848;BME280;57143;55.940;37.496;2023-03-13T09:33:07;98217.19;;;0.30;100.00
69848;BME280;57143;55.940;37.496;2023-03-13T09:35:34;98196.59;;;0.17;100.00
69848;BME280;57143;55.940;37.496;2023-03-13T09:38:01;98166.84;;;0.35;100.00
69848;BME280;57143;55.940;37.496;2023-03-13T09:40:28;98140.47;;;0.19;100.00
69848;BME280;57143;55.940;37.496;2023-03-13T09:42:57;98111.34;;;-0.04;100.00
69848;BME280;57143;55.940;37.496;2023-03-13T09:45:30;98098.00;;;-0.25;100.00
69848;BME280;57143;55.940;37.496;2023-03-13T09:48:01;98074.31;;;0.01;100.00
69848;BME280;57143;55.940;37.496;2023-03-13T09:50:33;98028.47;;;0.61;100.00
69848;BME280;57143;55.940;37.496;2023-03-13T09:53:05;98025.31;;;0.51;100.00
69848;BME280;57143;55.940;37.496;2023-03-13T09:55:40;98019.41;;;0.55;100.00
69848;BME280;57143;55.940;37.496;2023-03-13T09:58:14;98044.38;;;0.48;100.00
69848;BME280;57143;55.940;37.496;2023-03-13T10:00:46;98066.78;;;0.05;100.00
69848;BME280;57143;55.940;37.496;2023-03-13T10:03:17;98075.19;;;-0.13;100.00
69848;BME280;57143;55.940;37.496;2023-03-13T10:05:50;98046.47;;;-0.39;100.00
69848;BME280;57143;55.940;37.496;2023-03-13T10:08:21;98078.88;;;-0.35;100.00
69848;BME280;57143;55.940;37.496;2023-03-13T10:10:53;98063.22;;;-0.24;100.00
69848;BME280;57143;55.940;37.496;2023-03-13T10:13:27;98062.19;;;-0.44;100.00
69848;BME280;57143;55.940;37.496;2023-03-13T10:16:00;98013.16;;;-0.35;100.00
69848;BME280;57143;55.940;37.496;2023-03-13T10:18:28;98008.94;;;-0.02;100.00
69848;BME280;57143;55.940;37.496;2023-03-13T10:20:59;98029.13;;;-0.35;100.00
69848;BME280;57143;55.940;37.496;2023-03-13T10:23:37;98009.00;;;-0.58;100.00
69848;BME280;57143;55.940;37.496;2023-03-13T10:26:10;98028.16;;;-0.84;100.00
69848;BME280;57143;55.940;37.496;2023-03-13T10:28:42;98035.44;;;-0.92;100.00
69848;BME280;57143;55.940;37.496;2023-03-13T10:31:15;98025.97;;;-0.80;100.00
69848;BME280;57143;55.940;37.496;2023-03-13T10:33:44;98015.16;;;-0.58;100.00
69848;BME280;57143;55.940;37.496;2023-03-13T10:36:14;98038.88;;;-0.77;100.00
69848;BME280;57143;55.940;37.496;2023-03-13T10:38:47;98035.56;;;-0.65;100.00
69848;BME280;57143;55.940;37.496;2023-03-13T10:41:21;98055.16;;;-0.30;100.00
69848;BME280;57143;55.940;37.496;2023-03-13T10:43:51;98086.66;;;-0.34;100.00
69848;BME280;57143;55.940;37.496;2023-03-13T10:46:26;98097.00;;;-0.03;100.00
69848;BME280;57143;55.940;37.496;2023-03-13T10:48:54;98109.44;;;-0.10;100.00
69848;BME280;57143;55.940;37.496;2023-03-13T10:51:29;98130.78;;;-0.25;100.00
69848;BME280;57143;55.940;37.496;2023-03-13T10:53:58;98150.22;;;0.12;100.00
69848;BME280;57143;55.940;37.496;2023-03-13T10:56:29;98155.84;;;0.02;100.00
69848;BME280;57143;55.940;37.496;2023-03-13T10:58:56;98194.59;;;-0.31;100.00
69848;BME280;57143;55.940;37.496;2023-03-13T11:01:26;98222.41;;;-0.34;100.00
69848;BME280;57143;55.940;37.496;2023-03-13T11:03:55;98219.34;;;-0.16;100.00
69848;BME280;57143;55.940;37.496;2023-03-13T11:06:27;98230.00;;;-0.16;100.00
69848;BME280;57143;55.940;37.496;2023-03-13T11:09:09;98239.66;;;-0.44;100.00
69848;BME280;57143;55.940;37.496;2023-03-13T11:11:46;98255.88;;;-0.10;100.00
69848;BME280;57143;55.940;37.496;2023-03-13T11:14:15;98257.22;;;0.15;100.00
69848;BME280;57143;55.940;37.496;2023-03-13T11:16:47;98211.19;;;-0.15;100.00
69848;BME280;57143;55.940;37.496;2023-03-13T11:19:28;98273.22;;;0.00;100.00
69848;BME280;57143;55.940;37.496;2023-03-13T11:25:00;98270.84;;;-0.09;100.00
69848;BME280;57143;55.940;37.496;2023-03-13T11:27:35;98279.06;;;0.11;100.00
69848;BME280;57143;55.940;37.496;2023-03-13T11:30:15;98271.28;;;0.09;100.00
69848;BME280;57143;55.940;37.496;2023-03-13T11:32:51;98286.44;;;0.09;100.00
69848;BME280;57143;55.940;37.496;2023-03-13T11:35:31;98300.28;;;0.19;100.00
69848;BME280;57143;55.940;37.496;2023-03-13T11:38:06;98327.56;;;-0.09;100.00
69848;BME280;57143;55.940;37.496;2023-03-13T11:40:37;98242.34;;;-0.59;100.00
69848;BME280;57143;55.940;37.496;2023-03-13T11:43:13;98299.06;;;0.21;100.00
69848;BME280;57143;55.940;37.496;2023-03-13T11:45:58;98304.00;;;0.03;100.00
69848;BME280;57143;55.940;37.496;2023-03-13T11:48:49;98301.25;;;0.68;100.00
69848;BME280;57143;55.940;37.496;2023-03-13T11:51:25;98321.31;;;0.28;100.00
69848;BME280;57143;55.940;37.496;2023-03-13T11:54:12;98330.25;;;0.56;100.00
69848;BME280;57143;55.940;37.496;2023-03-13T11:56:52;98310.56;;;0.57;100.00
69848;BME280;57143;55.940;37.496;2023-03-13T11:59:34;98298.28;;;0.21;100.00
69848;BME280;57143;55.940;37.496;2023-03-13T12:02:17;98337.22;;;0.22;100.00
69848;BME280;57143;55.940;37.496;2023-03-13T12:04:53;98334.66;;;-0.01;100.00
69848;BME280;57143;55.940;37.496;2023-03-13T12:07:25;98300.13;;;-0.24;100.00
69848;BME280;57143;55.940;37.496;2023-03-13T12:09:58;98312.44;;;-0.08;100.00
69848;BME280;57143;55.940;37.496;2023-03-13T12:12:39;98276.66;;;-0.35;100.00
69848;BME280;57143;55.940;37.496;2023-03-13T12:15:21;98297.19;;;-0.29;100.00
69848;BME280;57143;55.940;37.496;2023-03-13T12:17:53;98305.34;;;-0.45;100.00
69848;BME280;57143;55.940;37.496;2023-03-13T12:20:24;98290.22;;;-0.30;100.00
69848;BME280;57143;55.940;37.496;2023-03-13T12:22:57;98289.41;;;-0.16;100.00
69848;BME280;57143;55.940;37.496;2023-03-13T12:25:33;98263.59;;;-0.44;100.00
69848;BME280;57143;55.940;37.496;2023-03-13T12:28:14;98247.91;;;-0.68;100.00
69848;BME280;57143;55.940;37.496;2023-03-13T12:30:47;98267.00;;;-0.36;100.00
69848;BME280;57143;55.940;37.496;2023-03-13T12:33:20;98174.22;;;-1.11;100.00
69848;BME280;57143;55.940;37.496;2023-03-13T12:35:52;98276.63;;;-0.49;100.00
69848;BME280;57143;55.940;37.496;2023-03-13T12:38:27;98311.50;;;-0.44;100.00
69848;BME280;57143;55.940;37.496;2023-03-13T12:41:07;98329.75;;;-0.41;100.00
69848;BME280;57143;55.940;37.496;2023-03-13T12:43:39;98334.75;;;-0.24;100.00
69848;BME280;57143;55.940;37.496;2023-03-13T12:46:26;98348.25;;;-0.25;100.00
69848;BME280;57143;55.940;37.496;2023-03-13T12:49:21;98391.66;;;-0.10;100.00
69848;BME280;57143;55.940;37.496;2023-03-13T12:52:07;98429.69;;;-0.16;100.00
69848;BME280;57143;55.940;37.496;2023-03-13T12:54:51;98443.28;;;0.03;100.00
69848;BME280;57143;55.940;37.496;2023-03-13T12:57:43;98456.59;;;0.03;100.00
69848;BME280;57143;55.940;37.496;2023-03-13T13:00:20;98454.91;;;-0.12;100.00
69848;BME280;57143;55.940;37.496;2023-03-13T13:03:01;98515.75;;;-0.01;100.00